createdAt,value
2023-08-17T00:00:57.318Z,51.216091
2023-08-17T00:01:57.362Z,51.215977
2023-08-17T00:02:57.311Z,51.215828
2023-08-17T00:03:57.317Z,51.215958
2023-08-17T00:04:57.287Z,51.216034
2023-08-17T00:05:57.285Z,51.216125
2023-08-17T00:06:57.277Z,51.216114
2023-08-17T00:07:57.270Z,51.216141
2023-08-17T00:08:57.267Z,51.216110
2023-08-17T00:09:57.240Z,51.215969
2023-08-17T00:10:57.253Z,51.216015
2023-08-17T00:11:57.240Z,51.216190
2023-08-17T00:12:57.213Z,51.216141
2023-08-17T00:13:57.218Z,51.216064
2023-08-17T00:14:57.211Z,51.216015
2023-08-17T00:15:57.239Z,51.216103
2023-08-17T00:16:57.213Z,51.216103
2023-08-17T00:17:57.236Z,51.216122
2023-08-17T00:18:57.203Z,51.216068
2023-08-17T00:19:57.184Z,51.216000
2023-08-17T00:20:57.186Z,51.216000
2023-08-17T00:21:57.179Z,51.216156
2023-08-17T00:22:57.165Z,51.216228
2023-08-17T00:23:57.156Z,51.216198
2023-08-17T00:24:57.155Z,51.216076
2023-08-17T00:25:57.161Z,51.216015
2023-08-17T00:26:57.143Z,51.216045
2023-08-17T00:27:57.114Z,51.216129
2023-08-17T00:28:57.127Z,51.216141
2023-08-17T00:29:57.110Z,51.216228
2023-08-17T00:30:57.114Z,51.216213
2023-08-17T00:31:57.143Z,51.216068
2023-08-17T00:32:57.150Z,51.216084
2023-08-17T00:33:57.089Z,51.216110
2023-08-17T00:34:57.076Z,51.216072
2023-08-17T00:35:57.082Z,51.216061
2023-08-17T00:36:57.112Z,51.216099
2023-08-17T00:37:57.067Z,51.216122
2023-08-17T00:38:57.050Z,51.216152
2023-08-17T00:39:57.042Z,51.216187
2023-08-17T00:40:57.028Z,51.216190
2023-08-17T00:41:57.039Z,51.216286
2023-08-17T00:42:57.053Z,51.216225
2023-08-17T00:43:57.022Z,51.216042
2023-08-17T00:44:57.021Z,51.216019
2023-08-17T00:45:57.061Z,51.216015
2023-08-17T00:46:57.009Z,51.216038
2023-08-17T00:47:57.037Z,51.216099
2023-08-17T00:48:57.014Z,51.216045
2023-08-17T00:49:56.975Z,51.216053
2023-08-17T00:50:56.968Z,51.216099
2023-08-17T00:51:56.961Z,51.216148
2023-08-17T00:52:57.005Z,51.216171
2023-08-17T00:53:56.942Z,51.216133
2023-08-17T00:54:56.934Z,51.216183
2023-08-17T00:55:56.975Z,51.216190
2023-08-17T00:56:56.925Z,51.216148
2023-08-17T00:57:56.921Z,51.216114
2023-08-17T00:58:56.900Z,51.216114
2023-08-17T01:00:04.673Z,51.216106
2023-08-17T01:00:58.911Z,51.216118
2023-08-17T01:01:56.907Z,51.216103
2023-08-17T01:02:56.931Z,51.216061
2023-08-17T01:03:56.865Z,51.216106
2023-08-17T01:04:56.911Z,51.216110
2023-08-17T01:05:56.866Z,51.216084
2023-08-17T01:06:56.863Z,51.216129
2023-08-17T01:07:56.862Z,51.216068
2023-08-17T01:08:56.854Z,51.216122
2023-08-17T01:09:56.828Z,51.216072
2023-08-17T01:10:56.834Z,51.216152
2023-08-17T01:11:56.816Z,51.216160
2023-08-17T01:12:56.835Z,51.216141
2023-08-17T01:13:56.823Z,51.215988
2023-08-17T01:14:56.807Z,51.216053
2023-08-17T01:15:56.818Z,51.215950
2023-08-17T01:16:56.800Z,51.215965
2023-08-17T01:17:56.828Z,51.216072
2023-08-17T01:18:56.865Z,51.216129
2023-08-17T01:19:56.789Z,51.216183
2023-08-17T01:20:56.768Z,51.216175
2023-08-17T01:21:56.766Z,51.216171
2023-08-17T01:22:56.771Z,51.216133
2023-08-17T01:23:56.753Z,51.216213
2023-08-17T01:24:56.759Z,51.216213
2023-08-17T01:25:56.722Z,51.216141
2023-08-17T01:26:56.728Z,51.216175
2023-08-17T01:27:56.722Z,51.216274
2023-08-17T01:28:56.718Z,51.216091
2023-08-17T01:29:56.722Z,51.216103
2023-08-17T01:30:56.733Z,51.216049
2023-08-17T01:31:56.706Z,51.216061
2023-08-17T01:32:56.718Z,51.216068
2023-08-17T01:33:56.699Z,51.216152
2023-08-17T01:34:56.681Z,51.216209
2023-08-17T01:35:56.665Z,51.216259
2023-08-17T01:36:56.655Z,51.216217
2023-08-17T01:37:56.651Z,51.216038
2023-08-17T01:38:56.678Z,51.216133
2023-08-17T01:39:56.674Z,51.216225
2023-08-17T01:40:56.630Z,51.216347
2023-08-17T01:41:56.623Z,51.216152
2023-08-17T01:42:56.629Z,51.216080
2023-08-17T01:43:56.633Z,51.216103
2023-08-17T01:44:56.620Z,51.216190
2023-08-17T01:45:56.618Z,51.216171
2023-08-17T01:46:56.629Z,51.216183
2023-08-17T01:47:56.648Z,51.216213
2023-08-17T01:48:56.580Z,51.216213
2023-08-17T01:49:56.570Z,51.216171
2023-08-17T01:50:56.564Z,51.216156
2023-08-17T01:51:56.582Z,51.216152
2023-08-17T01:52:56.561Z,51.216114
2023-08-17T01:53:56.538Z,51.216122
2023-08-17T01:54:56.540Z,51.216095
2023-08-17T01:55:56.525Z,51.216129
2023-08-17T01:56:56.517Z,51.216145
2023-08-17T01:57:56.553Z,51.216110
2023-08-17T01:58:56.506Z,51.216133
2023-08-17T01:59:56.504Z,51.216152
2023-08-17T02:00:56.519Z,51.216156
2023-08-17T02:01:56.499Z,51.216125
2023-08-17T02:02:56.546Z,51.216133
2023-08-17T02:03:56.482Z,51.216179
2023-08-17T02:04:56.471Z,51.216160
2023-08-17T02:05:56.468Z,51.216190
2023-08-17T02:06:56.460Z,51.216076
2023-08-17T02:07:56.449Z,51.216106
2023-08-17T02:08:56.950Z,51.216167
2023-08-17T02:09:56.437Z,51.216156
2023-08-17T02:10:56.428Z,51.216156
2023-08-17T02:11:56.431Z,51.216125
2023-08-17T02:13:02.145Z,51.216137
2023-08-17T02:13:58.416Z,51.216114
2023-08-17T02:14:56.407Z,51.216133
2023-08-17T02:15:56.399Z,51.216164
2023-08-17T02:16:56.451Z,51.216080
2023-08-17T02:17:56.434Z,51.216129
2023-08-17T02:18:56.377Z,51.216141
2023-08-17T02:19:56.371Z,51.216118
2023-08-17T02:20:56.356Z,51.216160
2023-08-17T02:21:56.356Z,51.216206
2023-08-17T02:22:56.357Z,51.216122
2023-08-17T02:23:56.354Z,51.216072
2023-08-17T02:24:56.329Z,51.216156
2023-08-17T02:25:56.353Z,51.216148
2023-08-17T02:26:56.327Z,51.216053
2023-08-17T02:27:56.332Z,51.216026
2023-08-17T02:28:56.308Z,51.215973
2023-08-17T02:29:56.302Z,51.215927
2023-08-17T02:30:56.368Z,51.215942
2023-08-17T02:31:56.277Z,51.216061
2023-08-17T02:32:56.325Z,51.216187
2023-08-17T02:33:56.277Z,51.216221
2023-08-17T02:34:56.270Z,51.216217
2023-08-17T02:35:56.324Z,51.216110
2023-08-17T02:36:56.247Z,51.216080
2023-08-17T02:37:56.252Z,51.216095
2023-08-17T02:38:56.266Z,51.215992
2023-08-17T02:39:56.272Z,51.215973
2023-08-17T02:40:56.220Z,51.216015
2023-08-17T02:41:56.222Z,51.215973
2023-08-17T02:42:56.192Z,51.215946
2023-08-17T02:43:56.228Z,51.215961
2023-08-17T02:44:56.187Z,51.215973
2023-08-17T02:45:56.224Z,51.216278
2023-08-17T02:46:56.177Z,51.216305
2023-08-17T02:47:56.202Z,51.216156
2023-08-17T02:48:56.173Z,51.216213
2023-08-17T02:49:56.154Z,51.216110
2023-08-17T02:50:56.165Z,51.216175
2023-08-17T02:51:56.144Z,51.216221
2023-08-17T02:52:56.134Z,51.216297
2023-08-17T02:53:56.117Z,51.216198
2023-08-17T02:54:56.128Z,51.216152
2023-08-17T02:55:56.138Z,51.216141
2023-08-17T02:56:56.102Z,51.216095
2023-08-17T02:57:56.109Z,51.216164
2023-08-17T02:58:56.088Z,51.216145
2023-08-17T02:59:56.075Z,51.216152
2023-08-17T03:00:56.092Z,51.216198
2023-08-17T03:01:56.109Z,51.216091
2023-08-17T03:02:56.084Z,51.216068
2023-08-17T03:03:56.078Z,51.216137
2023-08-17T03:04:56.056Z,51.216125
2023-08-17T03:05:56.066Z,51.216106
2023-08-17T03:06:56.033Z,51.215996
2023-08-17T03:07:56.033Z,51.216072
2023-08-17T03:08:56.009Z,51.216087
2023-08-17T03:09:56.026Z,51.216099
2023-08-17T03:10:55.998Z,51.215923
2023-08-17T03:11:57.008Z,51.215931
2023-08-17T03:12:55.981Z,51.215954
2023-08-17T03:13:55.977Z,51.216030
2023-08-17T03:14:55.982Z,51.216164
2023-08-17T03:15:55.973Z,51.216122
2023-08-17T03:16:55.983Z,51.216202
2023-08-17T03:17:55.996Z,51.216175
2023-08-17T03:18:55.936Z,51.216045
2023-08-17T03:19:55.944Z,51.216171
2023-08-17T03:20:55.933Z,51.216038
2023-08-17T03:21:55.936Z,51.216114
2023-08-17T03:22:55.908Z,51.216209
2023-08-17T03:23:55.917Z,51.216179
2023-08-17T03:24:56.010Z,51.216194
2023-08-17T03:25:55.887Z,51.216286
2023-08-17T03:26:55.883Z,51.216301
2023-08-17T03:27:55.880Z,51.216198
2023-08-17T03:28:55.872Z,51.216179
2023-08-17T03:29:55.866Z,51.216209
2023-08-17T03:30:55.918Z,51.216145
2023-08-17T03:31:56.904Z,51.216259
2023-08-17T03:32:56.880Z,51.216343
2023-08-17T03:33:55.832Z,51.216316
2023-08-17T03:34:55.853Z,51.216328
2023-08-17T03:35:55.848Z,51.216145
2023-08-17T03:36:55.980Z,51.216171
2023-08-17T03:37:55.821Z,51.216167
2023-08-17T03:38:55.806Z,51.216228
2023-08-17T03:39:55.815Z,51.216221
2023-08-17T03:40:55.804Z,51.216209
2023-08-17T03:41:55.795Z,51.216118
2023-08-17T03:42:55.785Z,51.216099
2023-08-17T03:43:55.769Z,51.215965
2023-08-17T03:44:55.762Z,51.216091
2023-08-17T03:45:55.805Z,51.216038
2023-08-17T03:46:55.758Z,51.215912
2023-08-17T03:47:55.769Z,51.215889
2023-08-17T03:48:55.735Z,51.215870
2023-08-17T03:49:55.736Z,51.216175
2023-08-17T03:50:55.744Z,51.216347
2023-08-17T03:51:55.734Z,51.216305
2023-08-17T03:52:55.714Z,51.216251
2023-08-17T03:53:55.693Z,51.215870
2023-08-17T03:54:55.701Z,51.215565
2023-08-17T03:55:55.712Z,51.215691
2023-08-17T03:56:55.678Z,51.215946
2023-08-17T03:57:55.668Z,51.216167
2023-08-17T03:58:55.664Z,51.216251
2023-08-17T03:59:55.658Z,51.216103
2023-08-17T04:00:55.674Z,51.216106
2023-08-17T04:01:55.667Z,51.215912
2023-08-17T04:02:55.676Z,51.215763
2023-08-17T04:03:55.629Z,51.215893
2023-08-17T04:04:55.695Z,51.215816
2023-08-17T04:05:55.640Z,51.215771
2023-08-17T04:06:55.896Z,51.216122
2023-08-17T04:07:55.617Z,51.216114
2023-08-17T04:08:55.603Z,51.216217
2023-08-17T04:09:55.596Z,51.216175
2023-08-17T04:10:55.600Z,51.216217
2023-08-17T04:11:55.575Z,51.216270
2023-08-17T04:12:55.575Z,51.216267
2023-08-17T04:13:55.578Z,51.216148
2023-08-17T04:14:55.565Z,51.216091
2023-08-17T04:15:55.622Z,51.216160
2023-08-17T04:16:55.626Z,51.216148
2023-08-17T04:17:55.659Z,51.216156
2023-08-17T04:18:55.623Z,51.216213
2023-08-17T04:19:55.528Z,51.216122
2023-08-17T04:20:55.745Z,51.216171
2023-08-17T04:21:55.524Z,51.216122
2023-08-17T04:22:55.519Z,51.216129
2023-08-17T04:23:55.507Z,51.216152
2023-08-17T04:24:55.493Z,51.216087
2023-08-17T04:25:55.477Z,51.216122
2023-08-17T04:26:55.471Z,51.216091
2023-08-17T04:27:55.485Z,51.216072
2023-08-17T04:28:55.484Z,51.215988
2023-08-17T04:29:55.452Z,51.215996
2023-08-17T04:30:55.449Z,51.216007
2023-08-17T04:31:55.502Z,51.216095
2023-08-17T04:32:55.486Z,51.216198
2023-08-17T04:33:55.516Z,51.216099
2023-08-17T04:34:55.432Z,51.216000
2023-08-17T04:35:55.423Z,51.215950
2023-08-17T04:36:55.399Z,51.216068
2023-08-17T04:37:55.396Z,51.216019
2023-08-17T04:38:55.413Z,51.215996
2023-08-17T04:39:55.390Z,51.215958
2023-08-17T04:40:55.544Z,51.216122
2023-08-17T04:41:55.392Z,51.216110
2023-08-17T04:42:55.370Z,51.216087
2023-08-17T04:43:55.352Z,51.216095
2023-08-17T04:44:55.354Z,51.216110
2023-08-17T04:45:55.390Z,51.216187
2023-08-17T04:46:55.340Z,51.216267
2023-08-17T04:47:55.346Z,51.216366
2023-08-17T04:48:55.323Z,51.216236
2023-08-17T04:49:55.326Z,51.216190
2023-08-17T04:50:55.304Z,51.216171
2023-08-17T04:51:55.319Z,51.216160
2023-08-17T04:52:55.329Z,51.216164
2023-08-17T04:53:55.337Z,51.216106
2023-08-17T04:54:55.329Z,51.216251
2023-08-17T04:55:55.292Z,51.216198
2023-08-17T04:56:55.271Z,51.216133
2023-08-17T04:57:55.277Z,51.216148
2023-08-17T04:58:55.287Z,51.216122
2023-08-17T04:59:55.285Z,51.216202
2023-08-17T05:00:55.336Z,51.216209
2023-08-17T05:01:55.236Z,51.216244
2023-08-17T05:02:55.334Z,51.216206
2023-08-17T05:03:55.288Z,51.216202
2023-08-17T05:04:55.226Z,51.216156
2023-08-17T05:05:55.227Z,51.216225
2023-08-17T05:06:55.206Z,51.216213
2023-08-17T05:07:55.211Z,51.216232
2023-08-17T05:08:55.220Z,51.216248
2023-08-17T05:09:55.181Z,51.216206
2023-08-17T05:10:55.225Z,51.216209
2023-08-17T05:11:55.175Z,51.216206
2023-08-17T05:12:55.172Z,51.216232
2023-08-17T05:13:55.172Z,51.216202
2023-08-17T05:14:55.186Z,51.216133
2023-08-17T05:15:55.236Z,51.216190
2023-08-17T05:16:55.142Z,51.216232
2023-08-17T05:17:55.200Z,51.216198
2023-08-17T05:18:55.142Z,51.216236
2023-08-17T05:19:55.129Z,51.216209
2023-08-17T05:20:55.122Z,51.216217
2023-08-17T05:21:55.125Z,51.216228
2023-08-17T05:22:55.108Z,51.216156
2023-08-17T05:23:55.098Z,51.216190
2023-08-17T05:24:55.086Z,51.216228
2023-08-17T05:25:55.159Z,51.216194
2023-08-17T05:26:55.081Z,51.216190
2023-08-17T05:27:55.074Z,51.216213
2023-08-17T05:28:55.072Z,51.216183
2023-08-17T05:29:55.066Z,51.216160
2023-08-17T05:30:55.092Z,51.216179
2023-08-17T05:31:55.053Z,51.216167
2023-08-17T05:32:55.110Z,51.216110
2023-08-17T05:33:55.050Z,51.216167
2023-08-17T05:34:55.017Z,51.216183
2023-08-17T05:35:56.054Z,51.216217
2023-08-17T05:36:55.008Z,51.216225
2023-08-17T05:37:55.037Z,51.216225
2023-08-17T05:38:54.995Z,51.216209
2023-08-17T05:39:55.000Z,51.216206
2023-08-17T05:40:56.004Z,51.216228
2023-08-17T05:41:54.971Z,51.216244
2023-08-17T05:42:54.982Z,51.216171
2023-08-17T05:43:54.965Z,51.216198
2023-08-17T05:44:54.968Z,51.216110
2023-08-17T05:45:54.949Z,51.216095
2023-08-17T05:46:55.022Z,51.216003
2023-08-17T05:47:55.041Z,51.215996
2023-08-17T05:48:55.182Z,51.216103
2023-08-17T05:49:54.937Z,51.216152
2023-08-17T05:50:55.202Z,51.216194
2023-08-17T05:51:55.531Z,51.216156
2023-08-17T05:52:56.624Z,51.216190
2023-08-17T05:53:55.928Z,51.216152
2023-08-17T05:54:54.888Z,51.216141
2023-08-17T05:55:54.889Z,51.216045
2023-08-17T05:56:54.918Z,51.216152
2023-08-17T05:57:54.864Z,51.216221
2023-08-17T05:58:54.877Z,51.216194
2023-08-17T05:59:54.883Z,51.216164
2023-08-17T06:00:54.862Z,51.216080
2023-08-17T06:01:54.870Z,51.216129
2023-08-17T06:02:54.890Z,51.216145
2023-08-17T06:03:54.891Z,51.216084
2023-08-17T06:04:54.823Z,51.216068
2023-08-17T06:05:55.394Z,51.216091
2023-08-17T06:06:54.821Z,51.216145
2023-08-17T06:07:54.841Z,51.216167
2023-08-17T06:08:54.791Z,51.216091
2023-08-17T06:09:54.799Z,51.216110
2023-08-17T06:10:54.787Z,51.216160
2023-08-17T06:11:54.795Z,51.216122
2023-08-17T06:12:54.864Z,51.216106
2023-08-17T06:13:54.762Z,51.216064
2023-08-17T06:14:54.764Z,51.216084
2023-08-17T06:15:57.784Z,51.216103
2023-08-17T06:16:54.808Z,51.216152
2023-08-17T06:17:54.756Z,51.216164
2023-08-17T06:18:54.730Z,51.216129
2023-08-17T06:19:54.716Z,51.216099
2023-08-17T06:20:54.823Z,51.216068
2023-08-17T06:21:54.711Z,51.216064
2023-08-17T06:22:54.720Z,51.216114
2023-08-17T06:23:54.704Z,51.216087
2023-08-17T06:24:54.690Z,51.216084
2023-08-17T06:25:54.691Z,51.216114
2023-08-17T06:26:54.675Z,51.216042
2023-08-17T06:27:54.667Z,51.216049
2023-08-17T06:28:54.661Z,51.216099
2023-08-17T06:29:54.652Z,51.216133
2023-08-17T06:30:54.679Z,51.216049
2023-08-17T06:31:54.646Z,51.216019
2023-08-17T06:32:54.655Z,51.215981
2023-08-17T06:33:54.631Z,51.216049
2023-08-17T06:34:54.633Z,51.216125
2023-08-17T06:35:54.611Z,51.216156
2023-08-17T06:36:54.633Z,51.216110
2023-08-17T06:37:54.587Z,51.216053
2023-08-17T06:38:55.612Z,51.216091
2023-08-17T06:39:54.584Z,51.216080
2023-08-17T06:40:54.595Z,51.216084
2023-08-17T06:41:54.600Z,51.216110
2023-08-17T06:42:54.577Z,51.216042
2023-08-17T06:43:54.560Z,51.215973
2023-08-17T06:44:54.582Z,51.216007
2023-08-17T06:45:54.580Z,51.216015
2023-08-17T06:46:54.550Z,51.216007
2023-08-17T06:47:54.546Z,51.215992
2023-08-17T06:48:54.523Z,51.215878
2023-08-17T06:49:54.529Z,51.215939
2023-08-17T06:50:54.534Z,51.216019
2023-08-17T06:51:54.518Z,51.216034
2023-08-17T06:52:54.520Z,51.215984
2023-08-17T06:53:54.496Z,51.215981
2023-08-17T06:54:54.491Z,51.215958
2023-08-17T06:55:54.527Z,51.216022
2023-08-17T06:56:54.471Z,51.216087
2023-08-17T06:57:54.456Z,51.216087
2023-08-17T06:58:54.460Z,51.216042
2023-08-17T06:59:54.455Z,51.216022
2023-08-17T07:00:54.456Z,51.216022
2023-08-17T07:01:54.508Z,51.215912
2023-08-17T07:02:57.003Z,51.215988
2023-08-17T07:03:55.424Z,51.216072
2023-08-17T07:04:54.449Z,51.216095
2023-08-17T07:05:54.432Z,51.216049
2023-08-17T07:06:54.406Z,51.216057
2023-08-17T07:07:55.408Z,51.216057
2023-08-17T07:08:54.425Z,51.216034
2023-08-17T07:09:54.385Z,51.216110
2023-08-17T07:10:54.408Z,51.216068
2023-08-17T07:11:54.375Z,51.216045
2023-08-17T07:12:54.366Z,51.216061
2023-08-17T07:13:54.358Z,51.216068
2023-08-17T07:14:54.358Z,51.216076
2023-08-17T07:15:54.372Z,51.216106
2023-08-17T07:16:54.357Z,51.216061
2023-08-17T07:17:54.353Z,51.216011
2023-08-17T07:18:54.325Z,51.215958
2023-08-17T07:20:14.608Z,51.215919
2023-08-17T07:20:58.839Z,51.215988
2023-08-17T07:21:54.336Z,51.216015
2023-08-17T07:22:54.299Z,51.215996
2023-08-17T07:23:54.308Z,51.216061
2023-08-17T07:24:54.279Z,51.216091
2023-08-17T07:25:54.321Z,51.216087
2023-08-17T07:26:54.283Z,51.216026
2023-08-17T07:27:54.257Z,51.216068
2023-08-17T07:28:54.268Z,51.216099
2023-08-17T07:29:54.273Z,51.216118
2023-08-17T07:30:54.259Z,51.216034
2023-08-17T07:31:54.272Z,51.216099
2023-08-17T07:32:54.307Z,51.216114
2023-08-17T07:33:54.221Z,51.216148
2023-08-17T07:34:54.214Z,51.216187
2023-08-17T07:35:54.219Z,51.216160
2023-08-17T07:36:54.204Z,51.216064
2023-08-17T07:38:07.253Z,51.216000
2023-08-17T07:38:56.188Z,51.216072
2023-08-17T07:39:54.198Z,51.216030
2023-08-17T07:40:54.164Z,51.216080
2023-08-17T07:41:54.189Z,51.216076
2023-08-17T07:42:54.174Z,51.216095
2023-08-17T07:43:54.141Z,51.216160
2023-08-17T07:44:54.159Z,51.216152
2023-08-17T07:45:54.167Z,51.216095
2023-08-17T07:46:54.124Z,51.216106
2023-08-17T07:47:54.170Z,51.216137
2023-08-17T07:48:54.402Z,51.216034
2023-08-17T07:49:54.110Z,51.216103
2023-08-17T07:50:54.096Z,51.216064
2023-08-17T07:51:54.087Z,51.216034
2023-08-17T07:52:54.083Z,51.216034
2023-08-17T07:53:54.101Z,51.216034
2023-08-17T07:54:54.076Z,51.216049
2023-08-17T07:55:56.116Z,51.216057
2023-08-17T07:56:54.103Z,51.216038
2023-08-17T07:57:54.069Z,51.216061
2023-08-17T07:58:54.044Z,51.216171
2023-08-17T07:59:54.045Z,51.216148
2023-08-17T08:00:54.029Z,51.216175
2023-08-17T08:01:54.074Z,51.215942
2023-08-17T08:02:54.095Z,51.215977
2023-08-17T08:03:54.037Z,51.215912
2023-08-17T08:04:54.065Z,51.216110
2023-08-17T08:05:53.997Z,51.216091
2023-08-17T08:06:53.990Z,51.216103
2023-08-17T08:07:54.001Z,51.216022
2023-08-17T08:08:53.994Z,51.216042
2023-08-17T08:09:53.976Z,51.216038
2023-08-17T08:10:53.962Z,51.216042
2023-08-17T08:11:53.958Z,51.216091
2023-08-17T08:12:53.953Z,51.216106
2023-08-17T08:13:53.971Z,51.216080
2023-08-17T08:14:53.943Z,51.216072
2023-08-17T08:15:53.965Z,51.216106
2023-08-17T08:16:53.943Z,51.216110
2023-08-17T08:17:53.957Z,51.216129
2023-08-17T08:18:54.222Z,51.216129
2023-08-17T08:19:53.925Z,51.216167
2023-08-17T08:20:53.900Z,51.216095
2023-08-17T08:21:53.893Z,51.216145
2023-08-17T08:22:53.885Z,51.216099
2023-08-17T08:23:53.880Z,51.216133
2023-08-17T08:24:53.911Z,51.216148
2023-08-17T08:25:53.864Z,51.216103
2023-08-17T08:26:53.868Z,51.216095
2023-08-17T08:27:53.869Z,51.216110
2023-08-17T08:28:53.841Z,51.216084
2023-08-17T08:29:53.840Z,51.216106
2023-08-17T08:30:53.870Z,51.216084
2023-08-17T08:31:53.834Z,51.216026
2023-08-17T08:32:53.868Z,51.216106
2023-08-17T08:33:53.813Z,51.216145
2023-08-17T08:34:53.813Z,51.216080
2023-08-17T08:35:53.833Z,51.216145
2023-08-17T08:36:53.804Z,51.216080
2023-08-17T08:37:53.794Z,51.216164
2023-08-17T08:38:53.806Z,51.216091
2023-08-17T08:39:53.782Z,51.216076
2023-08-17T08:40:53.779Z,51.216125
2023-08-17T08:41:53.781Z,51.216061
2023-08-17T08:42:53.772Z,51.216087
2023-08-17T08:43:53.746Z,51.216160
2023-08-17T08:44:53.879Z,51.216267
2023-08-17T08:45:53.807Z,51.216187
2023-08-17T08:46:53.779Z,51.216160
2023-08-17T08:47:53.772Z,51.216114
2023-08-17T08:48:53.716Z,51.216198
2023-08-17T08:49:53.717Z,51.216110
2023-08-17T08:50:53.710Z,51.216141
2023-08-17T08:51:53.743Z,51.216125
2023-08-17T08:52:53.688Z,51.216129
2023-08-17T08:53:53.700Z,51.216095
2023-08-17T08:54:53.670Z,51.216103
2023-08-17T08:55:53.671Z,51.216160
2023-08-17T08:56:53.659Z,51.216068
2023-08-17T08:57:53.674Z,51.216072
2023-08-17T08:58:54.834Z,51.216175
2023-08-17T08:59:58.240Z,51.216125
2023-08-17T09:00:54.670Z,51.216129
2023-08-17T09:01:53.656Z,51.216122
2023-08-17T09:02:53.685Z,51.216103
2023-08-17T09:03:53.624Z,51.216179
2023-08-17T09:04:53.637Z,51.216133
2023-08-17T09:05:53.605Z,51.216145
2023-08-17T09:06:53.598Z,51.216095
2023-08-17T09:07:53.605Z,51.216106
2023-08-17T09:08:53.603Z,51.216064
2023-08-17T09:09:53.578Z,51.216133
2023-08-17T09:10:53.576Z,51.216118
2023-08-17T09:11:53.574Z,51.216064
2023-08-17T09:12:53.966Z,51.216057
2023-08-17T09:13:54.039Z,51.216095
2023-08-17T09:14:57.317Z,51.216114
2023-08-17T09:15:54.531Z,51.216221
2023-08-17T09:16:53.594Z,51.216141
2023-08-17T09:17:53.556Z,51.216038
2023-08-17T09:18:53.538Z,51.216042
2023-08-17T09:19:53.517Z,51.216122
2023-08-17T09:20:53.534Z,51.216084
2023-08-17T09:21:53.507Z,51.216064
2023-08-17T09:22:54.512Z,51.215946
2023-08-17T09:23:58.884Z,51.216053
2023-08-17T09:24:54.496Z,51.216106
2023-08-17T09:25:53.483Z,51.216118
2023-08-17T09:26:53.485Z,51.216030
2023-08-17T09:27:53.463Z,51.216072
2023-08-17T09:28:53.449Z,51.215900
2023-08-17T09:29:53.448Z,51.216022
2023-08-17T09:30:53.517Z,51.216084
2023-08-17T09:31:53.432Z,51.216076
2023-08-17T09:32:53.474Z,51.216129
2023-08-17T09:33:53.409Z,51.216145
2023-08-17T09:34:53.395Z,51.216194
2023-08-17T09:35:58.407Z,51.215904
2023-08-17T09:36:55.384Z,51.216244
2023-08-17T09:37:53.392Z,51.216187
2023-08-17T09:38:53.387Z,51.216293
2023-08-17T09:39:53.371Z,51.216324
2023-08-17T09:40:53.362Z,51.216167
2023-08-17T09:41:53.351Z,51.216217
2023-08-17T09:42:53.354Z,51.216129
2023-08-17T09:43:53.378Z,51.216167
2023-08-17T09:44:53.351Z,51.216045
2023-08-17T09:45:53.326Z,51.216072
2023-08-17T09:46:53.360Z,51.215919
2023-08-17T09:47:53.344Z,51.215973
2023-08-17T09:48:53.299Z,51.215969
2023-08-17T09:49:53.290Z,51.215927
2023-08-17T09:50:53.296Z,51.215832
2023-08-17T09:51:53.270Z,51.215919
2023-08-17T09:52:53.281Z,51.216019
2023-08-17T09:53:53.286Z,51.216183
2023-08-17T09:54:53.266Z,51.216080
2023-08-17T09:55:53.247Z,51.216099
2023-08-17T09:56:53.244Z,51.216194
2023-08-17T09:57:53.290Z,51.216236
2023-08-17T09:58:53.221Z,51.216190
2023-08-17T09:59:55.800Z,51.216007
2023-08-17T10:00:54.236Z,51.216022
2023-08-17T10:02:54.230Z,51.216011
2023-08-17T10:03:53.182Z,51.216045
2023-08-17T10:04:53.240Z,51.216064
2023-08-17T10:05:55.663Z,51.216080
2023-08-17T10:06:54.305Z,51.216110
2023-08-17T10:07:53.177Z,51.216213
2023-08-17T10:08:53.164Z,51.216240
2023-08-17T10:09:53.151Z,51.216236
2023-08-17T10:10:56.442Z,51.216156
2023-08-17T10:11:55.738Z,51.216286
2023-08-17T10:12:54.127Z,51.216034
2023-08-17T10:13:53.116Z,51.216129
2023-08-17T10:14:53.108Z,51.216167
2023-08-17T10:15:53.112Z,51.216064
2023-08-17T10:16:53.134Z,51.216087
2023-08-17T10:17:55.792Z,51.216297
2023-08-17T10:18:54.095Z,51.216114
2023-08-17T10:19:53.193Z,51.216072
2023-08-17T10:20:53.078Z,51.216129
2023-08-17T10:21:53.054Z,51.216141
2023-08-17T10:22:53.720Z,51.216122
2023-08-17T10:23:54.975Z,51.216232
2023-08-17T10:24:54.037Z,51.216267
2023-08-17T10:25:53.051Z,51.216125
2023-08-17T10:26:54.886Z,51.216099
2023-08-17T10:28:00.067Z,51.216175
2023-08-17T10:28:54.009Z,51.216202
2023-08-17T10:29:53.003Z,51.216125
2023-08-17T10:30:53.021Z,51.216022
2023-08-17T10:31:53.022Z,51.216114
2023-08-17T10:32:53.046Z,51.216148
2023-08-17T10:33:52.965Z,51.216213
2023-08-17T10:34:53.016Z,51.216137
2023-08-17T10:35:52.960Z,51.216091
2023-08-17T10:36:52.958Z,51.216110
2023-08-17T10:37:52.954Z,51.216084
2023-08-17T10:38:52.926Z,51.216087
2023-08-17T10:39:52.921Z,51.216103
2023-08-17T10:40:52.985Z,51.216171
2023-08-17T10:41:52.906Z,51.216114
2023-08-17T10:42:52.934Z,51.216011
2023-08-17T10:43:52.909Z,51.215996
2023-08-17T10:44:52.881Z,51.215839
2023-08-17T10:45:52.897Z,51.215981
2023-08-17T10:46:52.884Z,51.215931
2023-08-17T10:47:52.923Z,51.215839
2023-08-17T10:48:52.858Z,51.215961
2023-08-17T10:49:52.857Z,51.216057
2023-08-17T10:50:52.842Z,51.215916
2023-08-17T10:51:52.845Z,51.216034
2023-08-17T10:52:52.846Z,51.216045
2023-08-17T10:53:52.826Z,51.216068
2023-08-17T10:54:52.853Z,51.216049
2023-08-17T10:55:53.306Z,51.216190
2023-08-17T10:56:53.808Z,51.216110
2023-08-17T10:57:52.808Z,51.216026
2023-08-17T10:58:52.804Z,51.215981
2023-08-17T10:59:52.793Z,51.216019
2023-08-17T11:00:52.774Z,51.216000
2023-08-17T11:01:52.849Z,51.215916
2023-08-17T11:02:52.821Z,51.215927
2023-08-17T11:03:52.772Z,51.215923
2023-08-17T11:04:52.775Z,51.216175
2023-08-17T11:05:52.735Z,51.216007
2023-08-17T11:06:52.760Z,51.216137
2023-08-17T11:07:52.740Z,51.216133
2023-08-17T11:08:52.752Z,51.216217
2023-08-17T11:09:52.721Z,51.216053
2023-08-17T11:10:52.703Z,51.216049
2023-08-17T11:11:52.701Z,51.216099
2023-08-17T11:12:53.469Z,51.216213
2023-08-17T11:13:56.711Z,51.216213
2023-08-17T11:14:53.672Z,51.216145
2023-08-17T11:15:52.708Z,51.216133
2023-08-17T11:16:52.666Z,51.216076
2023-08-17T11:17:52.678Z,51.216110
2023-08-17T11:18:52.740Z,51.216148
2023-08-17T11:19:52.648Z,51.216148
2023-08-17T11:20:52.629Z,51.216236
2023-08-17T11:21:52.622Z,51.216248
2023-08-17T11:22:52.646Z,51.216209
2023-08-17T11:23:52.642Z,51.216171
2023-08-17T11:24:52.623Z,51.216156
2023-08-17T11:25:52.603Z,51.216194